Antioch, Illinois
Current Conditions -  °F | °C
As of 11:53 PM on Monday 26 Jan 2015 (Local Time) from KENW Reporting Station
Haze Haze  
Wind Chill: 26°   Ceiling: 2100
Heat Index: 26°   Visibility: 6mi
Dew Point: 23°   Wind: 0mph
Humidity: 88%   Direction: NA
Pressure: 29.92"   Gusts: NA
Location:  42.48°N, 88.1°W
Report Text: KENW 270553Z AUTO 00000KT 6SM BR OVC021 M03/M05 A2992 RMK AO2 SLP141 60003 T10331050 11033 21033 410221100 53005
Loading
Personal Weather Stations






























Interactive Weather Map New forecast layout! Learn more

10-Day Weather Forecast

Advertisements
Track Severe Weather on mobile